Hauptseite
METAR-TAF:

METAR-TAF

Flughäfen :

Flughafen Cuneo

Cuneo, Italien

Breite: 44-32-47N, Länge: 007-37-20E, Höhe: 386 m

Beobachtung

Neuester Wetterbericht von vor 1 Stunde und 34 Minuten, um 19:50 UTC
Wind 5 kt aus Südwest
Temperatur -2°C
Luftfeuchtigkeit 80%
Luftdruck 1017 hPa
Sichtweite 10 km oder mehr
keine Wolken unter 1500 m und keine Kumulonimbus oder Gewitterwolken

METAR: LIMZ 161950Z 22005KT CAVOK M02/M05 Q1017

Zeit: 22:24 (21:24 UTC)

Prognose

Neuester Wetterbericht von vor 4 Stunden und 24 Minuten, um 17:00 UTC
Gültige Prognose vom 16 um 18 UTC bis 17 um 18 UTC
Wind 5 kt aus unterschiedlichen Richtungen
Sichtweite 10 km oder mehr
Aufgelockert bewölkt in der Höhe von 6000 ft

TAF: LIMZ 161700Z 1618/1718 VRB05KT 9999 SCT060

Wetterbeobachtungen und Prognosen von mehr als 4000 Flughäfen (METAR und TAF Bericht).

Die verfügbaren Stationen werden durch gelbe und rote Markierungen auf der Karte dargestellt.

Führen Sie die Maus auf sie, um den Namen der Station zu sehen.

Darauf klicken, um die Beobachtung von Wetterbeobachtungen und Prognosen zu sehen.

Um die Karte zu ändern : klicken Sie auf den grünen Tasten mit einem schwarzen Kreuz Zum Vergrößern, auf den grünen Button mit einem Gedankenstrich zu verkleinern, oder auf die grünen Pfeile für benachbarte Karten.


METAR-TAF: